Time;durP1;ratioP1;P1;durP2;ratioP2;P2;SDS_P1;SDS_P2;PMS_P1;PMS_P2;Temp;Humidity;BMP_temperature;BMP_pressure;BME280_temperature;BME280_humidity;BME280_pressure;Samples;Min_cycle;Max_cycle;Signal;HPM_P1;HPM_P2
2023/06/10 00:01:37;;;;;;;3.20;2.20;;;22.90;87.30;;;;;;6215398;23;20061;-81
2023/06/10 00:04:04;;;;;;;2.90;2.50;;;22.90;87.90;;;;;;6215358;23;20009;-81
2023/06/10 00:06:35;;;;;;;3.30;2.63;;;22.90;88.00;;;;;;6215444;23;20431;-80
2023/06/10 00:09:13;;;;;;;2.22;2.03;;;22.80;88.30;;;;;;6215214;23;20047;-80
2023/06/10 00:11:40;;;;;;;3.13;2.53;;;22.80;89.40;;;;;;6215006;23;20351;-81
2023/06/10 00:14:06;;;;;;;3.65;2.83;;;22.80;89.30;;;;;;6215106;23;20001;-81
2023/06/10 00:16:32;;;;;;;3.50;3.20;;;22.80;89.40;;;;;;6215451;23;20332;-81
2023/06/10 00:19:01;;;;;;;3.22;2.75;;;22.70;89.80;;;;;;6215783;23;20076;-80
2023/06/10 00:21:27;;;;;;;4.03;3.63;;;22.60;90.10;;;;;;6215400;23;20021;-80
2023/06/10 00:23:55;;;;;;;4.20;3.80;;;22.60;90.30;;;;;;6215522;23;20001;-81
2023/06/10 00:26:24;;;;;;;4.70;2.83;;;22.50;90.30;;;;;;6215044;23;20454;-81
2023/06/10 00:28:50;;;;;;;5.35;3.22;;;22.40;90.40;;;;;;6215966;23;20431;-81
2023/06/10 00:31:16;;;;;;;3.85;3.10;;;22.30;90.50;;;;;;6217547;23;20076;-80
2023/06/10 00:33:41;;;;;;;5.68;3.53;;;22.30;90.50;;;;;;6217228;23;20075;-80
2023/06/10 00:36:07;;;;;;;5.13;4.13;;;22.30;90.80;;;;;;6217523;23;20043;-80
2023/06/10 00:38:33;;;;;;;3.28;2.97;;;22.30;90.90;;;;;;6217382;23;19997;-80
2023/06/10 00:40:59;;;;;;;4.75;3.65;;;22.20;90.80;;;;;;6217076;23;20008;-82
2023/06/10 00:43:25;;;;;;;3.42;3.13;;;22.30;90.80;;;;;;6217482;23;20000;-82
2023/06/10 00:45:52;;;;;;;2.92;2.63;;;22.30;90.90;;;;;;6217379;23;20008;-82
2023/06/10 00:48:18;;;;;;;4.00;2.80;;;22.40;91.10;;;;;;6217113;23;20084;-82
2023/06/10 00:50:46;;;;;;;2.85;2.65;;;22.40;91.10;;;;;;6216936;23;20470;-82
2023/06/10 00:53:12;;;;;;;3.20;2.75;;;22.40;91.00;;;;;;6217186;23;20338;-81
2023/06/10 00:55:38;;;;;;;3.40;3.10;;;22.50;91.10;;;;;;6216990;23;20087;-80
2023/06/10 00:58:04;;;;;;;2.60;2.30;;;22.50;91.20;;;;;;6217046;23;20003;-80
2023/06/10 01:00:30;;;;;;;4.32;2.85;;;22.50;91.00;;;;;;6216902;23;19997;-80
2023/06/10 01:02:56;;;;;;;4.82;2.88;;;22.60;90.90;;;;;;6217168;23;20488;-80
2023/06/10 01:05:23;;;;;;;3.35;2.65;;;22.60;90.80;;;;;;6217486;23;20320;-80
2023/06/10 01:08:12;;;;;;;5.97;2.92;;;22.60;90.70;;;;;;6189750;23;20336;-80
2023/06/10 01:10:43;;;;;;;3.70;2.78;;;22.70;90.50;;;;;;6216903;23;20071;-80
2023/06/10 01:13:14;;;;;;;3.40;2.72;;;22.70;90.70;;;;;;6216552;23;20008;-80
2023/06/10 01:15:40;;;;;;;2.92;2.58;;;22.70;90.80;;;;;;6216236;23;20036;-80
2023/06/10 01:18:14;;;;;;;2.50;2.17;;;22.70;90.90;;;;;;6216157;23;20000;-80
2023/06/10 01:20:42;;;;;;;4.85;2.72;;;22.70;90.90;;;;;;6216670;23;20047;-80
2023/06/10 01:23:10;;;;;;;2.80;2.60;;;22.70;90.90;;;;;;6215707;23;20008;-81
2023/06/10 01:25:44;;;;;;;3.80;3.25;;;22.80;90.90;;;;;;6216088;23;20411;-81
2023/06/10 01:28:35;;;;;;;4.28;2.80;;;22.80;90.90;;;;;;6216952;23;20001;-81
2023/06/10 01:31:16;;;;;;;2.72;2.50;;;22.80;90.90;;;;;;6216229;23;20011;-81
2023/06/10 01:33:49;;;;;;;4.25;2.67;;;22.80;90.90;;;;;;6215967;23;20419;-81
2023/06/10 01:36:17;;;;;;;2.85;2.50;;;22.80;90.90;;;;;;6216495;23;19997;-81
2023/06/10 01:38:44;;;;;;;2.75;2.45;;;22.80;90.90;;;;;;6216301;23;20001;-81
2023/06/10 01:41:15;;;;;;;6.07;2.40;;;22.80;90.70;;;;;;6214850;23;20062;-82
2023/06/10 01:43:43;;;;;;;2.53;2.33;;;22.90;90.60;;;;;;6189605;23;20430;-80
2023/06/10 01:46:09;;;;;;;2.38;2.15;;;22.90;90.50;;;;;;6216251;23;20000;-80
2023/06/10 01:48:35;;;;;;;2.88;2.28;;;22.90;90.30;;;;;;6215472;23;19996;-80
2023/06/10 01:51:01;;;;;;;2.80;2.15;;;22.90;90.10;;;;;;6216487;23;20009;-80
2023/06/10 01:53:26;;;;;;;3.00;2.70;;;22.90;90.00;;;;;;6215229;23;20411;-80
2023/06/10 01:55:52;;;;;;;2.95;2.65;;;22.90;90.00;;;;;;6216659;23;20032;-80
2023/06/10 01:58:18;;;;;;;3.42;2.70;;;22.90;90.00;;;;;;6216545;23;20347;-80
2023/06/10 02:00:43;;;;;;;3.45;2.72;;;22.90;90.00;;;;;;6189651;23;20032;-82
2023/06/10 02:03:09;;;;;;;3.17;2.70;;;22.90;90.00;;;;;;6216300;23;19997;-82
2023/06/10 02:05:35;;;;;;;3.28;2.97;;;22.90;90.00;;;;;;6216224;23;20000;-82
2023/06/10 02:08:01;;;;;;;3.05;2.75;;;22.90;90.10;;;;;;6216232;23;20035;-80
2023/06/10 02:10:27;;;;;;;3.38;2.97;;;22.90;90.10;;;;;;6216338;23;20327;-80
2023/06/10 02:12:52;;;;;;;3.75;2.75;;;22.80;90.20;;;;;;6216129;23;20059;-80
2023/06/10 02:15:18;;;;;;;4.18;2.60;;;22.80;90.40;;;;;;6215590;23;20013;-81
2023/06/10 02:17:48;;;;;;;3.33;3.03;;;22.80;90.40;;;;;;6189012;23;20335;-83
2023/06/10 02:20:14;;;;;;;;;;;22.70;90.40;;;;;;6216483;23;20020;-82
2023/06/10 02:22:40;;;;;;;3.83;3.10;;;22.70;90.50;;;;;;6215619;23;19899;-82
2023/06/10 02:25:06;;;;;;;3.33;2.88;;;22.70;90.40;;;;;;6215592;23;20300;-82
2023/06/10 02:27:32;;;;;;;3.58;3.28;;;22.70;90.50;;;;;;6215711;23;20277;-82
2023/06/10 02:29:58;;;;;;;3.50;3.08;;;22.70;90.50;;;;;;6215542;23;20427;-82
2023/06/10 02:32:25;;;;;;;4.43;3.55;;;22.70;90.70;;;;;;6215062;23;20390;-82
2023/06/10 02:34:51;;;;;;;3.75;3.28;;;22.70;90.90;;;;;;6215644;23;20055;-82
2023/06/10 02:37:16;;;;;;;3.67;3.05;;;22.60;91.00;;;;;;6216107;23;20009;-82
2023/06/10 02:39:42;;;;;;;6.13;3.58;;;22.60;91.00;;;;;;6215553;23;19997;-82
2023/06/10 02:42:08;;;;;;;5.00;3.85;;;22.60;91.10;;;;;;6215578;23;19997;-82
2023/06/10 02:44:34;;;;;;;3.83;3.35;;;22.60;91.20;;;;;;6215122;23;20477;-83
2023/06/10 02:47:00;;;;;;;4.47;3.22;;;22.60;91.10;;;;;;6215462;23;20028;-83
2023/06/10 02:49:28;;;;;;;4.57;3.60;;;22.60;91.00;;;;;;6189774;23;20336;-82
2023/06/10 02:51:56;;;;;;;3.10;2.85;;;22.60;91.10;;;;;;6215207;23;20004;-80
2023/06/10 02:54:22;;;;;;;7.00;4.55;;;22.60;91.10;;;;;;6214726;23;20004;-80
2023/06/10 02:56:48;;;;;;;4.85;4.30;;;22.60;90.90;;;;;;6214978;23;19997;-80
2023/06/10 02:59:14;;;;;;;4.53;3.90;;;22.60;90.90;;;;;;6215134;23;20001;-80
2023/06/10 03:01:41;;;;;;;11.18;4.82;;;22.60;90.80;;;;;;6214723;23;20007;-80
2023/06/10 03:04:07;;;;;;;5.60;4.30;;;22.60;90.80;;;;;;6215526;23;20011;-80
2023/06/10 03:06:33;;;;;;;5.28;4.30;;;22.60;90.80;;;;;;6215101;23;20001;-80
2023/06/10 03:09:00;;;;;;;5.55;4.30;;;22.60;90.70;;;;;;6215234;23;20035;-80
2023/06/10 03:11:25;;;;;;;5.57;4.22;;;22.60;90.70;;;;;;6215412;23;20008;-80
2023/06/10 03:13:53;;;;;;;5.43;4.47;;;22.60;90.70;;;;;;6215057;23;20005;-80
2023/06/10 03:16:19;;;;;;;4.60;3.72;;;22.60;90.60;;;;;;6215410;23;20013;-80
2023/06/10 03:18:45;;;;;;;5.38;4.30;;;22.60;90.70;;;;;;6215443;23;20072;-80
2023/06/10 03:21:11;;;;;;;5.45;4.57;;;22.60;90.60;;;;;;6215469;23;20462;-80
2023/06/10 03:23:37;;;;;;;4.88;4.20;;;22.60;90.60;;;;;;6215052;23;20079;-80
2023/06/10 03:26:04;;;;;;;6.03;4.47;;;22.60;90.80;;;;;;6189124;23;20054;-80
2023/06/10 03:28:31;;;;;;;5.50;3.95;;;22.50;90.40;;;;;;6215339;23;20316;-80
2023/06/10 03:30:56;;;;;;;5.70;4.05;;;22.50;90.40;;;;;;6215651;23;20072;-80
2023/06/10 03:33:22;;;;;;;5.50;4.43;;;22.50;90.50;;;;;;6215393;23;20383;-80
2023/06/10 03:35:48;;;;;;;5.72;4.32;;;22.50;90.60;;;;;;6215535;23;20005;-80
2023/06/10 03:38:14;;;;;;;4.68;4.13;;;22.50;90.50;;;;;;6215126;23;20008;-81
2023/06/10 03:40:40;;;;;;;4.60;4.20;;;22.50;90.60;;;;;;6214787;23;20423;-81
2023/06/10 03:43:05;;;;;;;4.30;3.90;;;22.50;90.60;;;;;;6214795;23;20000;-81
2023/06/10 03:45:31;;;;;;;6.95;4.38;;;22.50;90.60;;;;;;6215351;23;20001;-81
2023/06/10 03:47:58;;;;;;;4.47;3.88;;;22.50;90.60;;;;;;6214728;23;20059;-81
2023/06/10 03:50:24;;;;;;;8.85;5.03;;;22.40;90.60;;;;;;6214862;23;20332;-81
2023/06/10 03:52:50;;;;;;;7.45;4.50;;;22.40;90.70;;;;;;6215125;23;20019;-81
2023/06/10 03:55:16;;;;;;;5.30;4.80;;;22.30;90.70;;;;;;6215222;23;20000;-80
2023/06/10 03:57:42;;;;;;;5.55;4.07;;;22.30;90.80;;;;;;6215072;23;20024;-81
2023/06/10 04:00:12;;;;;;;7.05;5.25;;;22.20;91.00;;;;;;6215554;23;19997;-81
2023/06/10 04:02:45;;;;;;;6.20;5.22;;;22.20;91.10;;;;;;6215841;23;20026;-81
2023/06/10 04:05:11;;;;;;;4.90;4.00;;;22.20;91.20;;;;;;6216668;23;20001;-81
2023/06/10 04:07:39;;;;;;;6.88;5.07;;;22.20;91.20;;;;;;6190894;23;20015;-80
2023/06/10 04:10:06;;;;;;;9.55;4.57;;;22.10;91.20;;;;;;6217090;23;20016;-81
2023/06/10 04:12:31;;;;;;;5.57;4.78;;;22.20;91.40;;;;;;6217137;23;20031;-82
2023/06/10 04:14:57;;;;;;;5.43;4.90;;;22.10;91.40;;;;;;6216580;23;20009;-80
2023/06/10 04:17:22;;;;;;;7.65;4.55;;;22.10;91.40;;;;;;6217646;23;20007;-79
2023/06/10 04:19:48;;;;;;;6.70;4.70;;;22.10;91.50;;;;;;6216182;23;20023;-79
2023/06/10 04:22:14;;;;;;;4.40;3.88;;;22.10;91.60;;;;;;6217387;23;20007;-79
2023/06/10 04:24:39;;;;;;;4.57;4.18;;;22.10;91.50;;;;;;6215994;23;20028;-78
2023/06/10 04:27:05;;;;;;;6.63;4.90;;;22.10;91.50;;;;;;6217237;23;20011;-78
2023/06/10 04:29:31;;;;;;;6.40;4.60;;;22.10;91.50;;;;;;6217259;23;20005;-79
2023/06/10 04:31:57;;;;;;;7.32;4.57;;;22.20;91.50;;;;;;6216870;23;20135;-78
2023/06/10 04:34:23;;;;;;;6.78;4.20;;;22.20;91.40;;;;;;6217067;23;20001;-78
2023/06/10 04:36:49;;;;;;;6.22;4.07;;;22.20;91.30;;;;;;6217369;23;19996;-75
2023/06/10 04:39:16;;;;;;;6.45;4.43;;;22.20;91.20;;;;;;6217667;23;20003;-77
2023/06/10 04:41:42;;;;;;;4.38;3.97;;;22.20;91.20;;;;;;6216264;23;20007;-77
2023/06/10 04:44:08;;;;;;;6.35;4.40;;;22.30;91.00;;;;;;6217161;23;20032;-77
2023/06/10 04:46:33;;;;;;;4.88;3.88;;;22.30;90.80;;;;;;6217093;23;20015;-77
2023/06/10 04:48:59;;;;;;;4.95;3.75;;;22.30;90.80;;;;;;6216457;23;20009;-77
2023/06/10 04:51:24;;;;;;;4.75;3.78;;;22.40;90.80;;;;;;6190501;23;20015;-77
2023/06/10 04:53:50;;;;;;;5.38;3.75;;;22.40;90.70;;;;;;6216894;23;20050;-77
2023/06/10 04:56:16;;;;;;;5.15;4.60;;;22.40;90.60;;;;;;6190863;23;20004;-77
2023/06/10 04:58:41;;;;;;;4.47;3.85;;;22.50;90.60;;;;;;6215777;23;20004;-76
2023/06/10 05:01:07;;;;;;;4.50;3.97;;;22.50;90.50;;;;;;6214714;23;20024;-78
2023/06/10 05:03:33;;;;;;;4.72;4.03;;;22.60;90.80;;;;;;6215239;23;20206;-78
2023/06/10 05:05:58;;;;;;;5.80;4.18;;;22.60;90.40;;;;;;6188967;23;20009;-79
2023/06/10 05:08:24;;;;;;;4.50;4.07;;;22.70;90.40;;;;;;6216409;23;20316;-79
2023/06/10 05:10:50;;;;;;;5.20;4.30;;;22.70;90.30;;;;;;6212948;23;20790;-79
2023/06/10 05:13:17;;;;;;;5.68;5.00;;;22.80;90.20;;;;;;6214082;23;20012;-80
2023/06/10 05:15:44;;;;;;;5.68;4.40;;;22.80;90.10;;;;;;6215621;23;20347;-79
2023/06/10 05:18:12;;;;;;;4.47;3.30;;;22.90;89.80;;;;;;6216634;23;20024;-79
2023/06/10 05:20:38;;;;;;;5.68;3.83;;;22.90;89.30;;;;;;6216113;23;20014;-80
2023/06/10 05:23:04;;;;;;;4.85;3.55;;;22.90;89.30;;;;;;6214035;23;20430;-79
2023/06/10 05:25:33;;;;;;;4.03;3.63;;;22.90;89.00;;;;;;6214491;23;20009;-77
2023/06/10 05:27:59;;;;;;;4.67;3.80;;;22.90;88.70;;;;;;6214057;23;20080;-79
2023/06/10 05:30:26;;;;;;;3.75;3.33;;;22.90;88.70;;;;;;6214654;23;20515;-78
2023/06/10 05:32:52;;;;;;;5.70;3.83;;;23.00;89.00;;;;;;6215225;23;20076;-78
2023/06/10 05:35:18;;;;;;;4.43;3.28;;;23.00;88.80;;;;;;6215663;23;20001;-79
2023/06/10 05:37:44;;;;;;;5.82;3.78;;;23.10;88.80;;;;;;6215818;23;20004;-79
2023/06/10 05:40:10;;;;;;;3.80;3.47;;;23.10;88.00;;;;;;6216027;23;20028;-79
2023/06/10 05:42:36;;;;;;;4.57;3.50;;;23.10;88.20;;;;;;6213592;23;19997;-80
2023/06/10 05:45:02;;;;;;;4.32;3.35;;;23.10;88.30;;;;;;6215427;23;20315;-79
2023/06/10 05:47:28;;;;;;;4.00;3.38;;;23.20;88.40;;;;;;6214615;23;20074;-78
2023/06/10 05:49:54;;;;;;;4.22;3.80;;;23.20;88.70;;;;;;6215020;23;20339;-77
2023/06/10 05:52:20;;;;;;;3.70;2.90;;;23.30;88.40;;;;;;6215676;23;20047;-78
2023/06/10 05:54:46;;;;;;;5.75;3.97;;;23.30;87.20;;;;;;6189432;23;20005;-78
2023/06/10 05:57:12;;;;;;;5.35;3.17;;;23.30;86.70;;;;;;6216354;23;20443;-78
2023/06/10 05:59:37;;;;;;;4.03;3.63;;;23.30;86.80;;;;;;6216177;23;20362;-78
2023/06/10 06:02:03;;;;;;;5.18;3.95;;;23.30;87.10;;;;;;6215145;23;20335;-78
2023/06/10 06:04:29;;;;;;;3.83;3.38;;;23.30;87.10;;;;;;6216244;23;20004;-78
2023/06/10 06:06:58;;;;;;;4.15;3.75;;;23.40;86.40;;;;;;6216209;23;20395;-78
2023/06/10 06:09:23;;;;;;;4.05;3.65;;;23.40;86.70;;;;;;6216217;23;20008;-80
2023/06/10 06:11:49;;;;;;;3.95;3.10;;;23.50;86.20;;;;;;6215399;23;20004;-78
2023/06/10 06:14:15;;;;;;;3.38;2.95;;;23.50;85.80;;;;;;6215409;23;20008;-78
2023/06/10 06:16:40;;;;;;;4.55;3.42;;;23.50;86.00;;;;;;6216159;23;20008;-78
2023/06/10 06:19:06;;;;;;;4.63;3.80;;;23.60;86.10;;;;;;6216309;23;20135;-78
2023/06/10 06:21:32;;;;;;;4.97;3.85;;;23.60;86.30;;;;;;6216085;23;20322;-78
2023/06/10 06:23:58;;;;;;;4.50;3.58;;;23.60;86.40;;;;;;6216228;23;20001;-78
2023/06/10 06:26:25;;;;;;;5.00;4.38;;;23.70;86.70;;;;;;6216308;23;20013;-78
2023/06/10 06:28:51;;;;;;;3.90;3.50;;;23.70;86.90;;;;;;6216360;23;20008;-78
2023/06/10 06:31:17;;;;;;;8.40;4.40;;;23.80;87.10;;;;;;6216206;23;20000;-78
2023/06/10 06:33:43;;;;;;;4.95;4.32;;;23.80;86.40;;;;;;6214134;23;20029;-78
2023/06/10 06:36:09;;;;;;;4.97;4.47;;;23.80;85.70;;;;;;6187913;23;20016;-78
2023/06/10 06:38:34;;;;;;;4.85;3.60;;;23.80;85.40;;;;;;6212335;23;20047;-78
2023/06/10 06:41:02;;;;;;;5.28;3.45;;;23.70;85.40;;;;;;6216174;23;20090;-78
2023/06/10 06:43:30;;;;;;;4.10;3.67;;;23.80;86.00;;;;;;6214848;23;20419;-78
2023/06/10 06:45:57;;;;;;;3.35;3.03;;;23.80;86.40;;;;;;6215336;23;20736;-78
2023/06/10 06:48:23;;;;;;;4.63;3.70;;;23.80;85.80;;;;;;6215191;23;20339;-78
2023/06/10 06:50:49;;;;;;;5.53;4.53;;;23.80;84.70;;;;;;6215356;23;20007;-78
2023/06/10 06:53:14;;;;;;;4.32;3.92;;;23.80;85.10;;;;;;6215609;23;20004;-78
2023/06/10 06:55:40;;;;;;;6.90;4.80;;;23.80;85.90;;;;;;6215858;23;20084;-78
2023/06/10 06:58:06;;;;;;;4.72;4.20;;;23.80;86.30;;;;;;6216105;23;20003;-78
2023/06/10 07:00:32;;;;;;;4.03;3.63;;;23.80;85.70;;;;;;6215830;23;20004;-80
2023/06/10 07:02:58;;;;;;;4.00;3.65;;;23.90;86.30;;;;;;6214214;23;20068;-77
2023/06/10 07:05:27;;;;;;;5.85;4.00;;;23.90;86.20;;;;;;6213802;23;20327;-77
2023/06/10 07:07:54;;;;;;;7.18;5.65;;;23.90;86.10;;;;;;6212699;23;20004;-77
2023/06/10 07:10:24;;;;;;;5.88;5.28;;;24.00;86.20;;;;;;6214970;23;20024;-78
2023/06/10 07:12:50;;;;;;;6.22;5.57;;;24.00;86.00;;;;;;6213008;23;20032;-77
2023/06/10 07:15:16;;;;;;;7.90;5.57;;;24.10;86.20;;;;;;6212468;23;20035;-77
2023/06/10 07:17:42;;;;;;;6.85;5.35;;;24.10;86.60;;;;;;6214017;23;20024;-80
2023/06/10 07:20:08;;;;;;;7.57;5.70;;;24.10;86.90;;;;;;6215351;23;20024;-80
2023/06/10 07:22:34;;;;;;;4.95;4.50;;;24.10;86.60;;;;;;6215025;23;20005;-80
2023/06/10 07:25:00;;;;;;;5.63;4.15;;;24.20;86.60;;;;;;6214445;23;20071;-80
2023/06/10 07:27:25;;;;;;;6.63;5.35;;;24.30;86.70;;;;;;6215192;23;20001;-81
2023/06/10 07:29:51;;;;;;;5.43;4.93;;;24.40;86.90;;;;;;6186287;23;20066;-80
2023/06/10 07:32:17;;;;;;;5.03;4.53;;;24.40;85.90;;;;;;6214591;23;20012;-80
2023/06/10 07:34:43;;;;;;;5.97;4.63;;;24.50;84.60;;;;;;6214990;23;20123;-80
2023/06/10 07:37:09;;;;;;;4.60;4.13;;;24.50;84.50;;;;;;6215118;23;20407;-81
2023/06/10 07:39:35;;;;;;;3.22;2.83;;;24.60;84.30;;;;;;6212954;23;20001;-80
2023/06/10 07:42:01;;;;;;;3.67;3.38;;;24.70;82.90;;;;;;6213766;23;20023;-80
2023/06/10 07:44:27;;;;;;;5.15;3.35;;;24.70;82.30;;;;;;6215063;23;20001;-77
2023/06/10 07:46:52;;;;;;;4.97;3.80;;;24.80;82.70;;;;;;6211967;23;20059;-77
2023/06/10 07:49:18;;;;;;;7.70;4.85;;;24.80;82.60;;;;;;6215278;23;20308;-77
2023/06/10 07:51:44;;;;;;;6.07;4.95;;;24.90;82.70;;;;;;6213573;23;20072;-76
2023/06/10 07:54:12;;;;;;;5.90;4.30;;;24.90;83.00;;;;;;6212002;23;20431;-77
2023/06/10 07:56:38;;;;;;;6.25;5.65;;;25.00;83.00;;;;;;6187112;23;20004;-77
2023/06/10 07:59:04;;;;;;;5.60;4.97;;;25.10;83.10;;;;;;6210777;23;20532;-80
2023/06/10 08:01:31;;;;;;;5.60;5.00;;;25.10;83.00;;;;;;6211702;23;20090;-80
2023/06/10 08:03:56;;;;;;;4.72;4.25;;;25.20;83.50;;;;;;6213838;23;20048;-80
2023/06/10 08:06:22;;;;;;;5.03;4.53;;;25.20;83.40;;;;;;6213947;23;20001;-80
2023/06/10 08:08:48;;;;;;;6.40;5.60;;;25.30;83.30;;;;;;6186359;23;20008;-80
2023/06/10 08:11:14;;;;;;;6.38;5.32;;;25.30;82.40;;;;;;6213420;23;20000;-80
2023/06/10 08:13:42;;;;;;;5.22;4.57;;;25.30;82.10;;;;;;6213124;23;20433;-80
2023/06/10 08:16:08;;;;;;;7.85;5.63;;;25.40;82.70;;;;;;6186253;23;20069;-82
2023/06/10 08:18:34;;;;;;;5.63;3.67;;;25.40;82.60;;;;;;6214258;23;20032;-81
2023/06/10 08:21:00;;;;;;;4.20;3.25;;;25.50;82.20;;;;;;6187434;23;20419;-80
2023/06/10 08:23:25;;;;;;;4.32;3.10;;;25.60;81.00;;;;;;6213422;23;20004;-80
2023/06/10 08:25:52;;;;;;;5.40;3.85;;;25.70;81.00;;;;;;6213454;23;20009;-81
2023/06/10 08:28:18;;;;;;;4.35;3.92;;;25.90;81.20;;;;;;6186531;23;20366;-81
2023/06/10 08:30:44;;;;;;;4.45;3.55;;;25.90;81.30;;;;;;6212195;23;20653;-80
2023/06/10 08:33:09;;;;;;;4.20;3.58;;;26.00;81.30;;;;;;6211659;23;20005;-80
2023/06/10 08:35:35;;;;;;;4.05;3.65;;;26.10;80.60;;;;;;6213006;23;20033;-80
2023/06/10 08:38:01;;;;;;;4.93;4.30;;;26.10;80.30;;;;;;6187058;23;20001;-81
2023/06/10 08:40:27;;;;;;;4.45;3.80;;;26.10;80.00;;;;;;6213707;23;20003;-78
2023/06/10 08:43:17;;;;;;;4.88;4.38;;;26.20;80.30;;;;;;6186522;23;20005;-78
2023/06/10 08:45:46;;;;;;;3.63;3.10;;;26.20;79.90;;;;;;6211381;23;20005;-78
2023/06/10 08:48:14;;;;;;;5.50;3.55;;;26.30;80.40;;;;;;6213589;23;20000;-78
2023/06/10 08:50:41;;;;;;;6.07;3.88;;;26.40;80.00;;;;;;6188375;23;20067;-78
2023/06/10 08:53:07;;;;;;;5.15;4.65;;;26.50;80.00;;;;;;6189664;23;20088;-78
2023/06/10 08:55:37;;;;;;;5.85;4.53;;;26.50;79.70;;;;;;6188301;23;20005;-78
2023/06/10 08:58:04;;;;;;;4.32;3.28;;;26.60;79.50;;;;;;6213917;23;20050;-78
2023/06/10 09:00:31;;;;;;;4.53;3.75;;;26.60;79.50;;;;;;6215089;23;20001;-78
2023/06/10 09:03:02;;;;;;;5.55;3.80;;;26.60;79.50;;;;;;6213044;23;20509;-78
2023/06/10 09:05:29;;;;;;;4.47;3.30;;;26.70;79.50;;;;;;6215599;23;20016;-78
2023/06/10 09:07:57;;;;;;;4.90;3.50;;;26.70;79.30;;;;;;6188194;23;20489;-78
2023/06/10 09:10:22;;;;;;;4.20;3.80;;;26.80;79.10;;;;;;6186981;23;20004;-79
2023/06/10 09:12:48;;;;;;;6.40;4.07;;;26.80;78.70;;;;;;6214089;23;20005;-78
2023/06/10 09:15:17;;;;;;;5.03;4.43;;;26.90;78.40;;;;;;6215956;23;20012;-78
2023/06/10 09:17:43;;;;;;;5.35;4.30;;;26.90;78.10;;;;;;6214773;23;20009;-79
2023/06/10 09:20:08;;;;;;;4.38;3.97;;;27.00;78.40;;;;;;6215597;23;20005;-78
2023/06/10 09:22:35;;;;;;;4.65;3.65;;;27.00;78.80;;;;;;6215362;23;20004;-78
2023/06/10 09:25:05;;;;;;;4.55;3.67;;;27.00;78.70;;;;;;6188850;23;20004;-78
2023/06/10 09:27:50;;;;;;;4.78;4.15;;;27.10;78.90;;;;;;6214742;23;20011;-77
2023/06/10 09:30:34;;;;;;;5.63;4.57;;;27.10;78.60;;;;;;6215608;23;20005;-78
2023/06/10 09:33:03;;;;;;;6.13;4.88;;;27.10;78.40;;;;;;6214716;23;20012;-79
2023/06/10 09:35:30;;;;;;;4.10;3.70;;;27.10;78.60;;;;;;6214317;23;20005;-78
2023/06/10 09:38:00;;;;;;;5.75;4.28;;;27.10;78.70;;;;;;6215050;23;20403;-78
2023/06/10 09:40:25;;;;;;;;;;;27.10;79.50;;;;;;6215750;23;20004;-78
2023/06/10 09:42:59;;;;;;;6.13;4.55;;;27.10;79.00;;;;;;6214201;23;19899;-78
2023/06/10 09:45:31;;;;;;;7.28;4.20;;;27.00;78.70;;;;;;6215428;23;20009;-78
2023/06/10 09:47:57;;;;;;;6.60;4.22;;;27.00;78.80;;;;;;6215992;23;20004;-78
2023/06/10 09:50:23;;;;;;;5.80;4.65;;;27.00;79.20;;;;;;6216001;23;20011;-78
2023/06/10 09:52:50;;;;;;;6.78;4.32;;;27.00;79.50;;;;;;6216566;23;20001;-78
2023/06/10 09:55:17;;;;;;;5.82;5.07;;;27.10;79.70;;;;;;6215992;23;20040;-78
2023/06/10 09:57:47;;;;;;;7.22;5.93;;;27.10;79.90;;;;;;6216480;23;20000;-78
2023/06/10 10:00:13;;;;;;;5.88;5.25;;;27.20;79.80;;;;;;6189761;23;20032;-78
2023/06/10 10:02:50;;;;;;;6.10;5.50;;;27.20;79.50;;;;;;6216099;23;20061;-78
2023/06/10 10:05:17;;;;;;;6.00;5.28;;;27.20;79.70;;;;;;6215355;23;20028;-78
2023/06/10 10:07:44;;;;;;;10.05;7.18;;;27.20;79.90;;;;;;6216314;23;20009;-79
2023/06/10 10:10:11;;;;;;;9.80;6.45;;;27.10;79.80;;;;;;6216016;23;20083;-78
2023/06/10 10:12:38;;;;;;;7.97;6.40;;;27.00;80.20;;;;;;6215367;23;20005;-77
2023/06/10 10:15:08;;;;;;;7.30;6.53;;;27.00;80.60;;;;;;6214718;23;20040;-77
2023/06/10 10:17:37;;;;;;;8.18;7.28;;;27.00;81.30;;;;;;6189726;23;20024;-77
2023/06/10 10:20:05;;;;;;;10.20;7.90;;;27.00;81.20;;;;;;6216649;23;20001;-77
2023/06/10 10:22:42;;;;;;;7.88;7.07;;;27.00;81.30;;;;;;6216177;23;19997;-77
2023/06/10 10:25:14;;;;;;;9.63;8.25;;;27.00;81.00;;;;;;6214909;23;20011;-77
2023/06/10 10:28:07;;;;;;;8.95;7.60;;;27.00;80.90;;;;;;6188588;23;20012;-77
2023/06/10 10:30:50;;;;;;;10.73;8.70;;;27.10;81.20;;;;;;6214619;23;20001;-78
2023/06/10 10:33:18;;;;;;;11.70;8.95;;;27.10;81.90;;;;;;6214657;23;20004;-81
2023/06/10 10:35:45;;;;;;;10.20;7.63;;;27.20;81.50;;;;;;6215626;23;20001;-80
2023/06/10 10:38:11;;;;;;;9.88;7.65;;;27.20;81.30;;;;;;6215749;23;20001;-80
2023/06/10 10:40:38;;;;;;;11.93;8.23;;;27.30;81.10;;;;;;6215181;23;20001;-78
2023/06/10 10:43:04;;;;;;;8.63;7.70;;;27.40;81.20;;;;;;6215650;23;20035;-78
2023/06/10 10:45:30;;;;;;;8.45;7.57;;;27.40;81.30;;;;;;6214792;23;20001;-78
2023/06/10 10:47:57;;;;;;;10.02;8.43;;;27.60;81.40;;;;;;6215692;23;20032;-77
2023/06/10 10:50:23;;;;;;;10.98;8.35;;;27.70;81.30;;;;;;6215205;23;20001;-78
2023/06/10 10:52:53;;;;;;;8.95;7.88;;;27.80;81.40;;;;;;6213583;23;20008;-77
2023/06/10 10:55:19;;;;;;;;;;;27.90;81.20;;;;;;6188484;23;20051;-77
2023/06/10 10:57:53;;;;;;;11.23;9.88;;;28.00;81.10;;;;;;6215798;23;19900;-77
2023/06/10 11:00:31;;;;;;;13.20;11.82;;;28.00;80.80;;;;;;6215627;23;20051;-77
2023/06/10 11:03:03;;;;;;;13.77;10.55;;;27.90;80.30;;;;;;6215378;23;20007;-77
2023/06/10 11:05:47;;;;;;;14.10;10.65;;;27.80;80.30;;;;;;6215489;23;20001;-78
2023/06/10 11:08:14;;;;;;;12.32;10.18;;;27.70;80.40;;;;;;6215888;23;20071;-78
2023/06/10 11:10:41;;;;;;;18.15;10.32;;;27.60;80.80;;;;;;6215371;23;20023;-78
2023/06/10 11:13:08;;;;;;;11.65;10.30;;;27.60;81.20;;;;;;6214784;23;20008;-80
2023/06/10 11:15:39;;;;;;;12.73;10.35;;;27.50;81.60;;;;;;6215340;23;20055;-80
2023/06/10 11:18:33;;;;;;;12.90;10.75;;;27.50;81.60;;;;;;6215355;23;20020;-82
2023/06/10 11:21:00;;;;;;;12.18;10.82;;;27.40;81.90;;;;;;6172318;23;20001;-80
2023/06/10 11:23:30;;;;;;;11.98;9.98;;;27.40;81.10;;;;;;6210327;23;20020;-79
2023/06/10 11:26:17;;;;;;;10.93;9.80;;;27.40;80.70;;;;;;6214148;23;20036;-79
2023/06/10 11:29:02;;;;;;;15.25;11.63;;;27.40;80.90;;;;;;6214817;23;20071;-79
2023/06/10 11:31:32;;;;;;;12.43;10.35;;;27.40;80.90;;;;;;6215295;23;20001;-78
2023/06/10 11:34:00;;;;;;;11.85;10.30;;;27.40;80.90;;;;;;6186904;23;20008;-79
2023/06/10 11:36:27;;;;;;;10.82;9.57;;;27.30;81.20;;;;;;6215041;23;20005;-78
2023/06/10 11:38:58;;;;;;;12.65;10.45;;;27.30;81.70;;;;;;6215184;23;19997;-79
2023/06/10 11:41:29;;;;;;;12.23;10.77;;;27.30;82.20;;;;;;6214629;23;20319;-79
2023/06/10 11:43:58;;;;;;;10.80;9.70;;;27.30;82.20;;;;;;6214899;23;19996;-78
2023/06/10 11:46:27;;;;;;;11.73;10.48;;;27.40;82.30;;;;;;6215099;23;19997;-78
2023/06/10 11:48:55;;;;;;;11.80;10.32;;;27.50;82.30;;;;;;6214912;23;20404;-78
2023/06/10 11:51:20;;;;;;;16.08;12.07;;;27.70;82.20;;;;;;6214814;23;20004;-79
2023/06/10 11:53:50;;;;;;;12.82;10.82;;;27.90;81.60;;;;;;6214756;23;20027;-79
2023/06/10 11:56:26;;;;;;;13.43;11.05;;;28.10;80.70;;;;;;6215116;23;20331;-79
2023/06/10 11:59:05;;;;;;;11.23;9.30;;;28.30;79.50;;;;;;6215384;23;20032;-79
2023/06/10 12:01:36;;;;;;;12.32;9.30;;;28.40;78.90;;;;;;6214925;23;20043;-78
2023/06/10 12:04:05;;;;;;;11.93;10.63;;;28.40;78.80;;;;;;6214539;23;20008;-78
2023/06/10 12:06:43;;;;;;;11.60;10.40;;;28.60;79.00;;;;;;6215012;23;20001;-79
2023/06/10 12:09:24;;;;;;;16.55;10.45;;;28.80;79.00;;;;;;6214702;23;20004;-78
2023/06/10 12:12:08;;;;;;;13.80;11.75;;;28.90;79.30;;;;;;6214580;23;20008;-78
2023/06/10 12:14:56;;;;;;;12.82;11.52;;;28.80;79.30;;;;;;6214900;23;20005;-79
2023/06/10 12:17:32;;;;;;;12.43;9.75;;;28.80;79.10;;;;;;6215014;23;20439;-79
2023/06/10 12:19:59;;;;;;;13.85;10.82;;;28.90;78.60;;;;;;6214461;23;20004;-78
2023/06/10 12:22:26;;;;;;;11.88;9.68;;;29.00;78.10;;;;;;6214495;23;20004;-78
2023/06/10 12:25:06;;;;;;;11.55;10.35;;;29.30;78.10;;;;;;6215849;23;20054;-79
2023/06/10 12:27:33;;;;;;;11.30;9.63;;;29.50;77.90;;;;;;6216879;23;20004;-78
2023/06/10 12:30:06;;;;;;;11.70;10.50;;;29.70;77.30;;;;;;6216862;23;20004;-79
2023/06/10 12:32:41;;;;;;;12.38;11.13;;;29.90;76.80;;;;;;6216944;23;20005;-79
2023/06/10 12:35:08;;;;;;;14.55;12.35;;;30.00;76.10;;;;;;6216575;23;20071;-78
2023/06/10 12:37:34;;;;;;;14.13;11.75;;;30.00;76.20;;;;;;6216941;23;19996;-79
2023/06/10 12:40:02;;;;;;;13.25;11.18;;;30.00;76.20;;;;;;6216069;23;20002;-78
2023/06/10 12:42:29;;;;;;;12.85;10.70;;;29.90;75.80;;;;;;6216758;23;20024;-79
2023/06/10 12:44:56;;;;;;;11.70;10.20;;;29.80;76.00;;;;;;6216853;23;20307;-79
2023/06/10 12:47:31;;;;;;;11.55;10.35;;;29.80;75.90;;;;;;6216420;23;20000;-78
2023/06/10 12:49:58;;;;;;;11.63;10.43;;;29.60;75.40;;;;;;6216574;23;20005;-78